Startpagina
METAR-TAF:

METAR-TAF

Vliegvelden :

Lichinga, Mozambique

breedte: 13-18S, lengte: 035-14E, hoogte: 1364 m

METAR: ontbreekt

Tijdstip: 23:08 (21:08 UTC)

Verwachting

Dit bericht is 5 uur en het 8 minuten geleden gemaakt, om 16:00 UTC
Verwachting geldig van 09 om 18 UTC tot 10 om 18 UTC
Wind 10 kt uit het oostnoordoosten
Zicht 10 km of meer
Gebroken wolken op 1500 ft
Kans 30% :
Tijdelijke
van 09 om 18 UTC tot 09 om 24 UTC
Zicht: 5000 m
Gebroken wolken op 1000 ft
Weinig wolken op 2000 ft, Cumulonimbus.
onweer, lichte regen
Wijzigt naar
van 10 om 06 UTC tot 10 om 08 UTC
Wind 8 kt uit het oostzuidoosten
Wijzigt naar
van 10 om 12 UTC tot 10 om 14 UTC
Wind 6 kt uit het westen

TAF: FQLC 091600Z 0918/1018 07010KT 9999 BKN015 TX25/1013Z TN16/1003Z PROB30 TEMPO 0918/0924 5000 -TSRA BKN010 FEW020CB BECMG 1006/1008 12008KT BECMG 1012/1014 26006KT

Waarnemingen en weersverwachtingen van meer dan 4000 vliegvelden (METAR en TAF).

De beschikbare stations zijn de gele en rode punten op de kaart.

Ga met uw muis naar het station om de naam te zien.

Klik dan om waarnemingen en weersverwachtingen te zien.

kaart wijzigen: klik op de groene knoppen met een zwart kruis om in te zoomen, op de groene knop met een streepje om uit te zoomen of op de groene pijlen voor aangrenzende kaarten.


METAR-TAF: